createdAt,value
2018-10-09T00:00:10.659Z,10.97
2018-10-09T00:03:14.102Z,10.83
2018-10-09T00:06:17.554Z,11.20
2018-10-09T00:09:21.025Z,10.57
2018-10-09T00:12:24.548Z,10.40
2018-10-09T00:15:27.999Z,9.80
2018-10-09T00:18:31.450Z,9.43
2018-10-09T00:21:34.949Z,9.60
2018-10-09T00:24:38.514Z,9.47
2018-10-09T00:27:41.931Z,9.60
2018-10-09T00:30:45.321Z,9.90
2018-10-09T00:33:48.774Z,10.70
2018-10-09T00:36:52.232Z,11.70
2018-10-09T00:39:55.633Z,13.40
2018-10-09T00:42:59.028Z,14.40
2018-10-09T00:46:02.470Z,13.03
2018-10-09T00:49:06.587Z,12.40
2018-10-09T00:52:10.064Z,14.07
2018-10-09T00:55:13.559Z,13.73
2018-10-09T00:58:16.929Z,14.53
2018-10-09T01:01:20.468Z,13.00
2018-10-09T01:04:23.965Z,13.43
2018-10-09T01:07:27.366Z,14.07
2018-10-09T01:10:30.750Z,13.97
2018-10-09T01:13:34.235Z,14.67
2018-10-09T01:16:37.661Z,14.63
2018-10-09T01:19:41.110Z,13.83
2018-10-09T01:22:44.558Z,14.27
2018-10-09T01:25:47.976Z,14.00
2018-10-09T01:28:51.384Z,14.07
2018-10-09T01:31:54.830Z,15.00
2018-10-09T01:34:58.312Z,15.20
2018-10-09T01:38:01.892Z,15.60
2018-10-09T01:41:05.290Z,15.73
2018-10-09T01:44:08.714Z,15.50
2018-10-09T01:47:12.149Z,14.97
2018-10-09T01:50:15.579Z,15.77
2018-10-09T01:53:19.000Z,17.33
2018-10-09T01:56:22.392Z,16.10
2018-10-09T01:59:25.775Z,17.07
2018-10-09T02:02:29.137Z,18.87
2018-10-09T02:05:32.840Z,16.90
2018-10-09T02:08:36.292Z,17.03
2018-10-09T02:11:39.734Z,18.57
2018-10-09T02:14:43.172Z,18.37
2018-10-09T02:17:46.574Z,19.63
2018-10-09T02:20:49.968Z,19.50
2018-10-09T02:23:53.370Z,18.17
2018-10-09T02:26:56.790Z,18.33
2018-10-09T02:30:00.225Z,19.43
2018-10-09T02:33:03.802Z,18.47
2018-10-09T02:36:07.192Z,20.20
2018-10-09T02:39:11.737Z,19.07
2018-10-09T02:42:15.132Z,20.30
2018-10-09T02:45:18.506Z,19.37
2018-10-09T02:48:22.009Z,18.30
2018-10-09T02:51:25.585Z,18.43
2018-10-09T02:54:29.078Z,19.70
2018-10-09T02:57:32.615Z,19.30
2018-10-09T03:01:39.367Z,19.27
2018-10-09T03:04:42.898Z,19.90
2018-10-09T03:07:46.427Z,19.07
2018-10-09T03:10:49.894Z,18.80
2018-10-09T03:13:53.420Z,18.00
2018-10-09T03:16:56.937Z,18.40
2018-10-09T03:20:00.446Z,19.07
2018-10-09T03:23:03.990Z,19.43
2018-10-09T03:26:07.780Z,18.43
2018-10-09T03:29:11.271Z,18.37
2018-10-09T03:32:14.735Z,18.13
2018-10-09T03:35:18.209Z,18.40
2018-10-09T03:38:21.744Z,17.60
2018-10-09T03:41:25.244Z,18.90
2018-10-09T03:44:28.793Z,17.23
2018-10-09T03:47:32.257Z,18.40
2018-10-09T03:50:35.747Z,18.27
2018-10-09T03:53:39.286Z,18.67
2018-10-09T03:56:42.752Z,18.27
2018-10-09T03:59:46.258Z,18.07
2018-10-09T04:02:49.759Z,18.23
2018-10-09T04:05:53.256Z,19.13
2018-10-09T04:08:56.823Z,18.00
2018-10-09T04:12:00.300Z,19.03
2018-10-09T04:15:03.845Z,18.33
2018-10-09T04:18:07.348Z,18.43
2018-10-09T04:21:10.858Z,17.03
2018-10-09T04:24:14.378Z,18.70
2018-10-09T04:27:18.117Z,17.23
2018-10-09T04:30:21.635Z,17.27
2018-10-09T04:33:25.060Z,17.03
2018-10-09T04:36:28.586Z,17.17
2018-10-09T04:39:32.227Z,17.43
2018-10-09T04:42:35.687Z,17.73
2018-10-09T04:45:39.573Z,17.93
2018-10-09T04:48:43.024Z,18.23
2018-10-09T04:51:46.497Z,16.77
2018-10-09T04:54:50.020Z,18.70
2018-10-09T04:57:53.906Z,17.80
2018-10-09T05:00:57.312Z,19.57
2018-10-09T05:04:00.860Z,18.27
2018-10-09T05:07:04.349Z,18.67
2018-10-09T05:10:08.574Z,17.87
2018-10-09T05:13:12.093Z,17.90
2018-10-09T05:16:15.565Z,17.90
2018-10-09T05:19:19.051Z,18.20
2018-10-09T05:22:22.682Z,17.07
2018-10-09T05:25:26.278Z,17.50
2018-10-09T05:28:29.778Z,17.03
2018-10-09T05:31:33.617Z,17.10
2018-10-09T05:34:37.074Z,17.27
2018-10-09T05:37:40.617Z,16.77
2018-10-09T05:40:44.190Z,17.77
2018-10-09T05:43:47.698Z,18.30
2018-10-09T05:46:51.261Z,16.57
2018-10-09T05:49:54.882Z,17.07
2018-10-09T05:52:58.292Z,17.47
2018-10-09T05:56:01.700Z,17.23
2018-10-09T05:59:05.137Z,18.37
2018-10-09T06:02:09.165Z,18.33
2018-10-09T06:05:12.603Z,17.43
2018-10-09T06:08:16.036Z,16.90
2018-10-09T06:11:19.591Z,17.27
2018-10-09T06:14:23.085Z,17.17
2018-10-09T06:17:26.591Z,17.63
2018-10-09T06:20:30.030Z,17.27
2018-10-09T06:23:33.431Z,17.77
2018-10-09T06:26:36.824Z,17.03
2018-10-09T06:29:40.435Z,17.13
2018-10-09T06:32:44.666Z,17.00
2018-10-09T06:35:49.159Z,17.50
2018-10-09T06:38:52.510Z,16.57
2018-10-09T06:41:55.941Z,17.80
2018-10-09T06:44:59.436Z,18.10
2018-10-09T06:48:02.858Z,18.50
2018-10-09T06:51:06.389Z,18.70
2018-10-09T06:54:09.935Z,19.17
2018-10-09T06:57:13.365Z,18.70
2018-10-09T07:00:16.832Z,21.63
2018-10-09T07:03:20.289Z,21.67
2018-10-09T07:06:23.807Z,21.70
2018-10-09T07:09:27.391Z,19.87
2018-10-09T07:12:30.706Z,20.93
2018-10-09T07:15:34.170Z,20.60
2018-10-09T07:18:37.582Z,20.30
2018-10-09T07:21:40.976Z,20.37
2018-10-09T07:24:44.416Z,19.87
2018-10-09T07:27:47.968Z,22.50
2018-10-09T07:30:51.602Z,21.43
2018-10-09T07:33:55.063Z,21.13
2018-10-09T07:36:58.546Z,23.87
2018-10-09T07:40:02.058Z,24.53
2018-10-09T07:43:05.522Z,23.97
2018-10-09T07:46:08.950Z,25.63
2018-10-09T07:49:12.578Z,27.57
2018-10-09T07:52:16.053Z,28.77
2018-10-09T07:55:19.544Z,27.93
2018-10-09T07:58:22.969Z,29.47
2018-10-09T08:01:26.433Z,28.70
2018-10-09T08:04:29.853Z,29.27
2018-10-09T08:07:33.347Z,29.43
2018-10-09T08:10:36.951Z,27.53
2018-10-09T08:13:40.498Z,27.67
2018-10-09T08:16:45.051Z,28.13
2018-10-09T08:19:48.516Z,31.00
2018-10-09T08:22:52.148Z,34.13
2018-10-09T08:25:55.591Z,32.47
2018-10-09T08:28:59.119Z,32.90
2018-10-09T08:32:02.626Z,34.97
2018-10-09T08:35:06.433Z,33.53
2018-10-09T08:38:09.874Z,33.53
2018-10-09T08:41:13.271Z,34.47
2018-10-09T08:44:16.695Z,33.47
2018-10-09T08:47:20.116Z,32.53
2018-10-09T08:50:23.623Z,33.33
2018-10-09T08:53:26.984Z,32.20
2018-10-09T08:56:30.384Z,35.27
2018-10-09T08:59:33.889Z,34.37
2018-10-09T09:02:37.365Z,34.07
2018-10-09T09:05:40.766Z,34.83
2018-10-09T09:08:44.285Z,33.60
2018-10-09T09:11:47.693Z,34.17
2018-10-09T09:14:51.229Z,34.53
2018-10-09T09:17:54.673Z,33.13
2018-10-09T09:20:58.269Z,32.40
2018-10-09T09:24:02.334Z,33.53
2018-10-09T09:27:05.912Z,32.93
2018-10-09T09:30:09.334Z,34.13
2018-10-09T09:33:12.752Z,32.90
2018-10-09T09:36:16.283Z,32.03
2018-10-09T09:39:19.631Z,34.90
2018-10-09T09:42:23.017Z,32.13
2018-10-09T09:45:26.512Z,33.83
2018-10-09T09:48:29.964Z,33.47
2018-10-09T09:51:33.401Z,31.93
2018-10-09T09:54:37.000Z,30.30
2018-10-09T09:57:40.549Z,30.27
2018-10-09T10:00:49.309Z,31.90
2018-10-09T10:03:52.784Z,32.33
2018-10-09T10:06:56.258Z,32.57
2018-10-09T10:09:59.580Z,33.73
2018-10-09T10:13:03.122Z,34.30
2018-10-09T10:16:06.721Z,33.60
2018-10-09T10:19:10.324Z,31.43
2018-10-09T10:22:13.980Z,32.13
2018-10-09T10:25:17.482Z,30.63
2018-10-09T10:28:21.004Z,30.33
2018-10-09T10:31:24.493Z,29.30
2018-10-09T10:34:27.982Z,34.03
2018-10-09T10:37:31.417Z,32.57
2018-10-09T10:40:34.909Z,29.90
2018-10-09T10:43:38.396Z,28.87
2018-10-09T10:46:42.528Z,31.90
2018-10-09T10:49:46.030Z,30.80
2018-10-09T10:52:49.496Z,31.43
2018-10-09T10:55:53.335Z,30.10
2018-10-09T10:58:56.812Z,28.47
2018-10-09T11:02:00.318Z,28.93
2018-10-09T11:05:03.849Z,29.57
2018-10-09T11:08:08.445Z,29.30
2018-10-09T11:11:11.979Z,27.60
2018-10-09T11:14:16.796Z,28.70
2018-10-09T11:17:20.379Z,29.13
2018-10-09T11:20:23.761Z,28.93
2018-10-09T11:23:27.811Z,26.93
2018-10-09T11:26:31.375Z,29.87
2018-10-09T11:29:34.950Z,29.47
2018-10-09T11:32:38.562Z,29.47
2018-10-09T11:35:41.970Z,26.37
2018-10-09T11:38:45.514Z,26.33
2018-10-09T11:41:49.075Z,28.13
2018-10-09T11:44:52.533Z,26.67
2018-10-09T11:47:56.045Z,25.07
2018-10-09T11:50:59.600Z,26.03
2018-10-09T11:54:03.119Z,27.10
2018-10-09T11:57:06.698Z,26.57
2018-10-09T12:00:10.201Z,25.00
2018-10-09T12:03:13.758Z,25.43
2018-10-09T12:06:17.714Z,24.50
2018-10-09T12:09:21.215Z,23.97
2018-10-09T12:12:24.803Z,25.20
2018-10-09T12:15:28.377Z,27.43
2018-10-09T12:18:32.020Z,27.07
2018-10-09T12:21:36.074Z,26.97
2018-10-09T12:24:39.607Z,25.23
2018-10-09T12:27:43.265Z,26.93
2018-10-09T12:30:47.731Z,25.53
2018-10-09T12:33:51.286Z,25.37
2018-10-09T12:36:54.784Z,25.37
2018-10-09T12:39:58.245Z,26.93
2018-10-09T12:43:01.728Z,24.30
2018-10-09T12:46:05.135Z,26.53
2018-10-09T12:49:08.953Z,26.63
2018-10-09T12:52:12.457Z,25.27
2018-10-09T12:55:16.034Z,26.83
2018-10-09T12:58:19.572Z,27.13
2018-10-09T13:01:23.162Z,26.33
2018-10-09T13:04:26.540Z,24.47
2018-10-09T13:07:29.929Z,23.07
2018-10-09T13:10:33.365Z,25.13
2018-10-09T13:13:36.757Z,25.53
2018-10-09T13:16:40.111Z,23.17
2018-10-09T13:19:43.528Z,24.27
2018-10-09T13:22:46.985Z,21.93
2018-10-09T13:25:50.316Z,22.03
2018-10-09T13:28:53.740Z,22.73
2018-10-09T13:31:57.141Z,22.20
2018-10-09T13:35:00.528Z,21.90
2018-10-09T13:38:04.022Z,20.70
2018-10-09T13:41:07.513Z,20.27
2018-10-09T13:44:10.964Z,21.07
2018-10-09T13:47:14.395Z,20.10
2018-10-09T13:50:17.788Z,17.93
2018-10-09T13:53:21.143Z,21.07
2018-10-09T13:56:24.635Z,19.73
2018-10-09T13:59:28.018Z,20.07
2018-10-09T14:02:31.428Z,21.70
2018-10-09T14:05:34.846Z,18.93
2018-10-09T14:08:38.220Z,18.30
2018-10-09T14:11:42.655Z,17.77
2018-10-09T14:14:46.045Z,16.83
2018-10-09T14:17:49.465Z,15.50
2018-10-09T14:20:52.877Z,16.43
2018-10-09T14:23:56.393Z,16.67
2018-10-09T14:26:59.762Z,16.30
2018-10-09T14:30:03.232Z,16.07
2018-10-09T14:33:06.761Z,16.30
2018-10-09T14:36:10.181Z,14.67
2018-10-09T14:39:13.549Z,14.13
2018-10-09T14:42:17.506Z,15.27
2018-10-09T14:45:21.039Z,13.77
2018-10-09T14:48:24.443Z,14.40
2018-10-09T14:51:27.869Z,13.43
2018-10-09T14:54:31.375Z,13.87
2018-10-09T14:57:34.867Z,13.87
2018-10-09T15:00:38.364Z,14.13
2018-10-09T15:03:41.896Z,14.23
2018-10-09T15:06:45.388Z,12.60
2018-10-09T15:09:48.980Z,13.57
2018-10-09T15:12:52.512Z,14.17
2018-10-09T15:15:56.068Z,13.70
2018-10-09T15:18:59.582Z,13.33
2018-10-09T15:22:03.012Z,13.53
2018-10-09T15:25:06.526Z,12.63
2018-10-09T15:28:10.185Z,13.73
2018-10-09T15:31:13.667Z,12.60
2018-10-09T15:34:17.112Z,13.10
2018-10-09T15:37:20.692Z,12.97
2018-10-09T15:40:24.162Z,13.17
2018-10-09T15:43:27.605Z,13.93
2018-10-09T15:46:31.119Z,16.57
2018-10-09T15:49:34.624Z,15.43
2018-10-09T15:52:38.171Z,14.10
2018-10-09T15:55:41.626Z,15.00
2018-10-09T15:58:45.041Z,15.43
2018-10-09T16:01:48.675Z,15.87
2018-10-09T16:04:52.238Z,15.70
2018-10-09T16:07:55.659Z,16.60
2018-10-09T16:10:59.332Z,15.10
2018-10-09T16:14:03.154Z,16.03
2018-10-09T16:17:07.124Z,15.83
2018-10-09T16:20:10.897Z,14.70
2018-10-09T16:23:14.481Z,15.47
2018-10-09T16:26:18.007Z,15.67
2018-10-09T16:29:21.483Z,15.27
2018-10-09T16:32:25.037Z,14.80
2018-10-09T16:35:28.365Z,15.70
2018-10-09T16:38:31.787Z,16.33
2018-10-09T16:41:35.189Z,15.57
2018-10-09T16:44:38.668Z,16.73
2018-10-09T16:47:42.083Z,15.93
2018-10-09T16:50:45.492Z,16.97
2018-10-09T16:53:48.993Z,17.03
2018-10-09T16:56:52.397Z,17.90
2018-10-09T16:59:55.911Z,16.63
2018-10-09T17:02:59.434Z,19.07
2018-10-09T17:06:02.902Z,18.57
2018-10-09T17:09:08.941Z,18.37
2018-10-09T17:12:12.364Z,17.83
2018-10-09T17:15:15.904Z,18.63
2018-10-09T17:18:20.322Z,19.60
2018-10-09T17:21:23.786Z,20.83
2018-10-09T17:24:27.228Z,19.60
2018-10-09T17:27:30.731Z,20.77
2018-10-09T17:30:34.204Z,20.53
2018-10-09T17:33:37.823Z,20.30
2018-10-09T17:36:41.745Z,20.37
2018-10-09T17:39:45.222Z,19.97
2018-10-09T17:42:48.616Z,20.60
2018-10-09T17:45:52.017Z,21.17
2018-10-09T17:48:55.495Z,21.50
2018-10-09T17:51:58.889Z,21.70
2018-10-09T17:55:02.328Z,21.63
2018-10-09T17:58:05.754Z,20.67
2018-10-09T18:01:09.226Z,20.27
2018-10-09T18:04:12.627Z,20.23
2018-10-09T18:07:16.805Z,19.97
2018-10-09T18:10:20.304Z,20.83
2018-10-09T18:13:23.760Z,19.73
2018-10-09T18:16:27.160Z,19.27
2018-10-09T18:19:30.566Z,18.73
2018-10-09T18:22:34.004Z,19.17
2018-10-09T18:25:37.475Z,19.07
2018-10-09T18:28:40.915Z,19.10
2018-10-09T18:31:44.422Z,18.03
2018-10-09T18:34:48.009Z,18.40
2018-10-09T18:37:51.487Z,18.27
2018-10-09T18:40:55.281Z,17.57
2018-10-09T18:43:58.569Z,18.13
2018-10-09T18:47:02.060Z,17.90
2018-10-09T18:50:05.599Z,18.83
2018-10-09T18:53:09.179Z,18.83
2018-10-09T18:56:12.609Z,19.00
2018-10-09T18:59:15.968Z,19.87
2018-10-09T19:02:19.362Z,19.60
2018-10-09T19:05:23.238Z,20.50
2018-10-09T19:08:26.758Z,19.10
2018-10-09T19:11:30.226Z,18.77
2018-10-09T19:14:33.759Z,19.50
2018-10-09T19:17:37.245Z,18.57
2018-10-09T19:20:40.693Z,18.27
2018-10-09T19:23:44.184Z,19.00
2018-10-09T19:26:47.602Z,17.50
2018-10-09T19:29:51.153Z,17.83
2018-10-09T19:32:54.582Z,18.23
2018-10-09T19:35:58.104Z,18.50
2018-10-09T19:39:01.643Z,18.40
2018-10-09T19:42:05.170Z,17.17
2018-10-09T19:45:08.649Z,18.13
2018-10-09T19:48:12.145Z,18.30
2018-10-09T19:51:15.603Z,17.67
2018-10-09T19:54:19.107Z,17.43
2018-10-09T19:57:22.627Z,18.63
2018-10-09T20:00:26.117Z,17.77
2018-10-09T20:03:29.574Z,18.00
2018-10-09T20:06:33.355Z,18.23
2018-10-09T20:09:37.032Z,18.40
2018-10-09T20:12:40.560Z,20.90
2018-10-09T20:15:44.100Z,19.67
2018-10-09T20:18:47.669Z,21.17
2018-10-09T20:21:51.148Z,18.80
2018-10-09T20:24:54.746Z,18.93
2018-10-09T20:27:58.280Z,18.10
2018-10-09T20:31:02.132Z,18.30
2018-10-09T20:34:05.735Z,18.83
2018-10-09T20:37:09.278Z,19.27
2018-10-09T20:40:12.901Z,18.50
2018-10-09T20:43:16.450Z,19.03
2018-10-09T20:46:20.117Z,18.53
2018-10-09T20:49:23.598Z,18.50
2018-10-09T20:52:27.103Z,18.60
2018-10-09T20:55:30.615Z,18.13
2018-10-09T20:58:34.176Z,19.20
2018-10-09T21:01:37.920Z,18.83
2018-10-09T21:04:41.540Z,17.83
2018-10-09T21:07:45.048Z,17.77
2018-10-09T21:10:48.631Z,19.50
2018-10-09T21:13:52.154Z,19.17
2018-10-09T21:16:55.964Z,18.70
2018-10-09T21:19:59.736Z,17.97
2018-10-09T21:23:04.642Z,17.90
2018-10-09T21:26:08.312Z,16.83
2018-10-09T21:29:11.908Z,18.53
2018-10-09T21:32:15.425Z,18.50
2018-10-09T21:35:19.005Z,17.77
2018-10-09T21:38:22.547Z,17.23
2018-10-09T21:41:26.078Z,18.30
2018-10-09T21:44:29.536Z,19.60
2018-10-09T21:47:32.985Z,19.10
2018-10-09T21:50:36.641Z,17.60
2018-10-09T21:53:40.451Z,18.80
2018-10-09T21:56:44.006Z,18.57
2018-10-09T21:59:48.090Z,17.93
2018-10-09T22:02:51.588Z,18.00
2018-10-09T22:05:55.255Z,18.40
2018-10-09T22:08:58.858Z,18.43
2018-10-09T22:12:02.399Z,17.77
2018-10-09T22:15:08.095Z,18.97
2018-10-09T22:18:11.516Z,17.33
2018-10-09T22:21:15.197Z,19.03
2018-10-09T22:24:18.756Z,18.77
2018-10-09T22:27:22.488Z,18.23
2018-10-09T22:30:26.059Z,18.63
2018-10-09T22:33:29.592Z,18.23
2018-10-09T22:36:33.498Z,19.67
2018-10-09T22:39:36.998Z,18.53
2018-10-09T22:42:41.533Z,19.87
2018-10-09T22:45:45.047Z,18.60
2018-10-09T22:48:48.513Z,18.97
2018-10-09T22:51:53.055Z,18.40
2018-10-09T22:54:56.557Z,17.67
2018-10-09T22:58:00.056Z,18.23
2018-10-09T23:01:03.542Z,18.80
2018-10-09T23:04:07.211Z,18.33
2018-10-09T23:07:10.844Z,19.70
2018-10-09T23:10:14.389Z,17.63
2018-10-09T23:13:17.999Z,18.30
2018-10-09T23:16:21.567Z,18.13
2018-10-09T23:19:25.067Z,20.30
2018-10-09T23:22:28.582Z,20.07
2018-10-09T23:25:32.072Z,21.17
2018-10-09T23:28:35.603Z,20.43
2018-10-09T23:31:39.142Z,20.50
2018-10-09T23:34:42.700Z,21.93
2018-10-09T23:37:46.202Z,22.23
2018-10-09T23:40:49.735Z,21.30
2018-10-09T23:43:53.323Z,20.97
2018-10-09T23:46:56.823Z,21.03
2018-10-09T23:50:00.378Z,20.77
2018-10-09T23:53:04.056Z,21.47
2018-10-09T23:56:07.631Z,21.00
2018-10-09T23:59:11.187Z,21.53
